createdAt,value
2019-03-24T22:04:50.568Z,4.58
2019-03-24T22:05:50.515Z,4.55
2019-03-24T22:06:52.542Z,4.55
2019-03-24T22:07:52.917Z,4.54
2019-03-24T22:08:53.430Z,4.54
2019-03-24T22:09:53.703Z,4.54
2019-03-24T22:10:54.613Z,4.53
2019-03-24T22:11:54.855Z,4.52
2019-03-24T22:13:11.796Z,4.52
2019-03-24T22:13:54.988Z,4.51
2019-03-24T22:14:56.526Z,4.50
2019-03-24T22:15:55.573Z,4.50
2019-03-24T22:16:56.757Z,4.49
2019-03-24T22:17:57.016Z,4.49
2019-03-24T22:18:57.358Z,4.48
2019-03-24T22:19:57.646Z,4.47
2019-03-24T22:20:57.964Z,4.46
2019-03-24T22:21:59.008Z,4.44
2019-03-24T22:22:59.171Z,4.43
2019-03-24T22:23:59.275Z,4.42
2019-03-24T22:25:00.330Z,4.41
2019-03-24T22:25:59.775Z,4.40
2019-03-24T22:27:00.957Z,4.39
2019-03-24T22:28:03.529Z,4.38
2019-03-24T22:29:00.328Z,4.37
2019-03-24T22:30:01.664Z,4.36
2019-03-24T22:31:02.568Z,4.36
2019-03-24T22:32:04.440Z,4.35
2019-03-24T22:33:02.046Z,4.35
2019-03-24T22:34:02.701Z,4.34
2019-03-24T22:35:04.602Z,4.34
2019-03-24T22:36:08.029Z,4.34
2019-03-24T22:37:15.442Z,4.33
2019-03-24T22:38:06.488Z,4.31
2019-03-24T22:39:07.594Z,4.30
2019-03-24T22:40:07.966Z,4.29
2019-03-24T22:41:08.329Z,4.28
2019-03-24T22:42:09.289Z,4.27
2019-03-24T22:43:09.528Z,4.26
2019-03-24T22:44:09.047Z,4.25
2019-03-24T22:45:10.589Z,4.24
2019-03-24T22:46:10.537Z,4.22
2019-03-24T22:47:12.385Z,4.21
2019-03-24T22:48:12.564Z,4.20
2019-03-24T22:49:13.485Z,4.19
2019-03-24T22:50:14.377Z,4.18
2019-03-24T22:51:14.406Z,4.18
2019-03-24T22:52:14.721Z,4.17
2019-03-24T22:53:15.667Z,4.15
2019-03-24T22:54:15.745Z,4.14
2019-03-24T22:55:16.694Z,4.13
2019-03-24T22:56:15.699Z,4.12
2019-03-24T22:57:16.779Z,4.10
2019-03-24T22:58:17.484Z,4.09
2019-03-24T22:59:17.122Z,4.07
2019-03-24T22:59:25.742Z,3.82
2019-03-24T23:00:25.839Z,3.79
2019-03-24T23:01:26.041Z,3.79
2019-03-24T23:02:26.606Z,3.79
2019-03-24T23:03:27.740Z,3.80
2019-03-24T23:04:30.365Z,3.80
2019-03-24T23:05:29.514Z,3.80
2019-03-24T23:06:27.510Z,3.80
2019-03-24T23:07:28.772Z,3.79
2019-03-24T23:08:29.677Z,3.79
2019-03-24T23:09:28.958Z,3.79
2019-03-24T23:10:30.331Z,3.78
2019-03-24T23:11:30.361Z,3.78
2019-03-24T23:12:30.480Z,3.77
2019-03-24T23:13:30.660Z,3.77
2019-03-24T23:14:30.761Z,3.77
2019-03-24T23:15:31.143Z,3.76
2019-03-24T23:16:31.295Z,3.75
2019-03-24T23:17:31.477Z,3.74
2019-03-24T23:18:32.253Z,3.73
2019-03-24T23:19:32.549Z,3.72
2019-03-24T23:20:32.576Z,3.71
2019-03-24T23:21:33.140Z,3.70
2019-03-24T23:22:33.342Z,3.69
2019-03-24T23:23:34.278Z,3.68
2019-03-24T23:24:35.199Z,3.67
2019-03-24T23:25:35.179Z,3.67
2019-03-24T23:26:36.047Z,3.66
2019-03-24T23:27:36.002Z,3.65
2019-03-24T23:28:37.301Z,3.65
2019-03-24T23:29:37.879Z,3.64
2019-03-24T23:30:38.037Z,3.63
2019-03-24T23:31:38.605Z,3.63
2019-03-24T23:32:39.350Z,3.62
2019-03-24T23:33:39.377Z,3.61
2019-03-24T23:34:40.295Z,3.60
2019-03-24T23:35:40.447Z,3.60
2019-03-24T23:36:41.271Z,3.59
2019-03-24T23:37:42.239Z,3.58
2019-03-24T23:38:44.120Z,3.57
2019-03-24T23:39:42.842Z,3.55
2019-03-24T23:40:43.054Z,3.54
2019-03-24T23:41:44.978Z,3.53
2019-03-24T23:42:45.461Z,3.51
2019-03-24T23:43:45.479Z,3.50
2019-03-24T23:44:45.539Z,3.49
2019-03-24T23:45:45.582Z,3.48
2019-03-24T23:46:46.533Z,3.47
2019-03-24T23:47:46.539Z,3.46
2019-03-24T23:47:55.060Z,3.30
2019-03-24T23:48:56.620Z,3.27
2019-03-24T23:49:56.627Z,3.27
2019-03-24T23:50:57.605Z,3.27
2019-03-24T23:51:58.552Z,3.27
2019-03-24T23:52:58.535Z,3.27
2019-03-24T23:54:00.376Z,3.27
2019-03-24T23:55:00.424Z,3.27
2019-03-24T23:56:01.323Z,3.26
2019-03-24T23:57:02.257Z,3.26
2019-03-24T23:58:02.495Z,3.26
2019-03-24T23:59:02.821Z,3.26
